Ube, Japan
Current Conditions -  °F | °C
As of 3:00 PM on Saturday 29 Nov 2014 (Local Time) from RJDC Reporting Station
Scattered Clouds Scattered Clouds  
Wind Chill: 66°   Ceiling: Unl
Heat Index: 66°   Visibility: 6mi
Dew Point: 50°   Wind: 9mph
Humidity: 56%   Direction: 10°N
Pressure: 30.03"   Gusts: NA
Location:  33.94°N, 131.24°E
Report Text: RJDC 290600Z 01008KT 330V030 9999 FEW025 SCT030 19/10 Q1017
Loading
Personal Weather Stations






























Interactive Weather Map New forecast layout! Learn more

10-Day Weather Forecast

Advertisements
Track Severe Weather on mobile